Time;durP1;ratioP1;P1;durP2;ratioP2;P2;SDS_P1;SDS_P2;PMS_P1;PMS_P2;Temp;Humidity;BMP_temperature;BMP_pressure;BME280_temperature;BME280_humidity;BME280_pressure;Samples;Min_cycle;Max_cycle;Signal;HPM_P1;HPM_P2
2023/12/29 00:01:52;;;;;;;9.05;2.10;;;;;;;12.05;68.03;98885.91;4991405;28;20474;-88
2023/12/29 00:04:20;;;;;;;8.60;2.42;;;;;;;12.11;68.68;98884.56;4989856;28;20054;-88
2023/12/29 00:06:46;;;;;;;11.27;2.38;;;;;;;12.11;68.86;98869.59;4991599;28;20097;-88
2023/12/29 00:09:25;;;;;;;11.30;2.25;;;;;;;12.11;68.34;98884.56;4990034;28;20073;-88
2023/12/29 00:11:54;;;;;;;8.23;2.00;;;;;;;12.11;68.82;98895.97;4989941;28;20054;-87
2023/12/29 00:14:20;;;;;;;10.30;2.20;;;;;;;12.11;68.54;98880.16;4991334;28;20184;-89
2023/12/29 00:16:47;;;;;;;10.77;2.20;;;;;;;12.11;68.66;98872.22;4989953;28;20062;-88
2023/12/29 00:19:14;;;;;;;10.15;2.28;;;;;;;12.14;68.72;98872.97;4991005;28;20078;-88
2023/12/29 00:21:41;;;;;;;11.27;1.98;;;;;;;12.14;68.77;98870.31;4989860;28;20069;-89
2023/12/29 00:24:08;;;;;;;7.65;2.08;;;;;;;12.14;68.55;98862.41;4989836;28;20054;-88
2023/12/29 00:26:35;;;;;;;9.02;1.77;;;;;;;12.15;69.09;98854.34;4990805;28;20495;-88
2023/12/29 00:29:05;;;;;;;10.13;2.25;;;;;;;12.14;69.02;98867.69;4989656;28;20082;-88
2023/12/29 00:34:47;;;;;;;11.00;2.10;;;;;;;12.03;68.86;98850.84;5068480;28;20496;-76
2023/12/29 00:37:14;;;;;;;11.60;2.63;;;;;;;11.95;69.18;98835.63;5069931;28;20053;-74
2023/12/29 00:39:41;;;;;;;11.23;2.60;;;;;;;11.85;69.51;98867.16;5070368;28;20048;-77
2023/12/29 00:42:07;;;;;;;9.93;1.80;;;;;;;11.75;69.91;98845.09;5071282;28;20053;-77
2023/12/29 00:44:35;;;;;;;11.40;3.00;;;;;;;11.69;70.22;98848.19;5074242;28;20053;-74
2023/12/29 00:47:01;;;;;;;15.38;2.42;;;;;;;11.64;70.72;98852.97;5073884;28;20695;-77
2023/12/29 00:49:28;;;;;;;9.38;2.05;;;;;;;11.57;70.71;98848.19;5074259;28;20120;-75
2023/12/29 00:51:55;;;;;;;11.20;2.80;;;;;;;11.55;70.77;98821.06;5074190;28;20460;-77
2023/12/29 00:54:22;;;;;;;9.02;2.13;;;;;;;11.54;71.20;98851.03;5072994;28;20097;-76
2023/12/29 00:56:50;;;;;;;10.23;2.35;;;;;;;11.57;71.43;98847.31;5073800;28;20512;-76
2023/12/29 00:59:20;;;;;;;8.35;2.30;;;;;;;11.57;70.54;98844.69;5073950;28;20102;-77
2023/12/29 01:01:47;;;;;;;12.68;2.22;;;;;;;11.62;71.38;98832.00;5073748;28;20056;-76
2023/12/29 01:04:14;;;;;;;13.18;2.28;;;;;;;11.62;71.13;98828.53;5073844;28;20051;-74
2023/12/29 01:06:41;;;;;;;7.90;1.83;;;;;;;11.67;71.29;98813.19;5073533;28;20094;-77
2023/12/29 01:09:11;;;;;;;10.55;2.20;;;;;;;11.70;71.22;98829.59;5073563;28;20453;-76
2023/12/29 01:11:38;;;;;;;12.23;2.10;;;;;;;11.72;71.13;98800.50;5072355;28;20048;-73
2023/12/29 01:14:05;;;;;;;11.25;2.42;;;;;;;11.78;71.29;98815.00;5073817;28;20056;-76
2023/12/29 01:16:32;;;;;;;14.70;3.42;;;;;;;11.81;71.18;98826.16;5073487;28;20127;-77
2023/12/29 01:18:59;;;;;;;7.35;2.03;;;;;;;11.84;71.04;98820.66;5073413;28;20057;-76
2023/12/29 01:21:26;;;;;;;12.20;2.10;;;;;;;11.87;71.03;98819.56;5073380;28;20048;-73
2023/12/29 01:23:52;;;;;;;10.45;2.47;;;;;;;11.90;70.77;98818.47;5073245;28;20051;-77
2023/12/29 01:26:19;;;;;;;16.10;2.20;;;;;;;11.92;70.97;98813.94;5072732;28;20066;-77
2023/12/29 01:28:45;;;;;;;10.82;1.85;;;;;;;11.93;70.74;98811.16;5072698;28;20048;-77
2023/12/29 01:31:13;;;;;;;7.65;2.00;;;;;;;11.95;70.81;98813.69;5072623;28;20105;-77
2023/12/29 01:33:40;;;;;;;9.90;2.38;;;;;;;11.98;70.84;98805.53;5072636;28;20151;-74
2023/12/29 01:36:06;;;;;;;12.93;2.08;;;;;;;12.02;70.70;98800.84;5072215;28;20072;-75
2023/12/29 01:38:43;;;;;;;6.90;1.40;;;;;;;12.05;70.75;98809.41;5072329;28;20550;-77
2023/12/29 01:41:09;;;;;;;12.25;1.55;;;;;;;12.06;70.67;98802.31;5072740;28;20130;-75
2023/12/29 01:43:36;;;;;;;13.52;1.83;;;;;;;12.10;70.50;98793.22;5072630;28;20109;-74
2023/12/29 01:46:03;;;;;;;9.77;2.45;;;;;;;12.07;69.65;98794.28;5072696;28;20049;-77
2023/12/29 01:48:30;;;;;;;9.75;1.90;;;;;;;12.09;70.04;98795.03;5072375;28;20052;-76
2023/12/29 01:50:58;;;;;;;9.90;2.10;;;;;;;12.09;70.03;98805.56;5072814;28;20044;-77
2023/12/29 01:53:25;;;;;;;9.73;1.75;;;;;;;12.05;69.92;98792.72;5071756;28;20040;-78
2023/12/29 01:56:06;;;;;;;6.70;1.80;;;;;;;12.00;70.23;98814.16;5071946;28;20498;-77
2023/12/29 01:58:33;;;;;;;6.68;1.65;;;;;;;11.94;70.45;98783.00;5072228;28;20045;-77
2023/12/29 02:01:01;;;;;;;8.65;1.80;;;;;;;11.84;70.77;98790.78;5072301;28;20048;-76
2023/12/29 02:03:28;;;;;;;10.35;1.60;;;;;;;11.73;71.08;98795.13;5071990;28;20512;-76
2023/12/29 02:05:55;;;;;;;7.00;1.35;;;;;;;11.64;71.59;98773.88;5071660;28;20041;-77
2023/12/29 02:08:22;;;;;;;7.38;2.30;;;;;;;11.55;72.13;98786.81;5072019;28;20044;-77
2023/12/29 02:10:49;;;;;;;9.93;2.40;;;;;;;11.48;72.46;98793.53;5071994;28;20049;-78
2023/12/29 02:13:15;;;;;;;7.38;1.77;;;;;;;11.43;72.70;98769.31;5071584;28;20126;-77
2023/12/29 02:15:42;;;;;;;13.95;2.05;;;;;;;11.36;73.13;98776.84;5072018;28;20041;-77
2023/12/29 02:18:17;;;;;;;7.60;1.73;;;;;;;11.36;72.89;98778.66;5071751;28;20079;-76
2023/12/29 02:20:44;;;;;;;7.85;2.33;;;;;;;11.38;73.43;98796.03;5070583;28;20052;-78
2023/12/29 02:23:11;;;;;;;11.65;2.20;;;;;;;11.40;73.50;98777.47;5071585;28;20705;-77
2023/12/29 02:25:37;;;;;;;7.28;1.90;;;;;;;11.43;73.13;98774.56;5070954;28;20048;-76
2023/12/29 02:28:14;;;;;;;4.43;1.52;;;;;;;11.44;72.05;98752.56;5071495;28;20098;-76
2023/12/29 02:30:51;;;;;;;7.80;1.85;;;;;;;11.49;72.68;98768.00;5071539;28;20153;-76
2023/12/29 02:33:20;;;;;;;7.50;1.95;;;;;;;11.55;72.88;98759.63;5071320;28;20049;-72
2023/12/29 02:35:51;;;;;;;8.70;2.00;;;;;;;11.59;72.61;98754.00;5051627;28;20171;-77
2023/12/29 02:38:18;;;;;;;7.85;1.60;;;;;;;11.64;72.69;98748.38;5051179;28;20044;-72
2023/12/29 02:40:46;;;;;;;8.20;1.98;;;;;;;11.67;72.52;98750.75;5051318;28;20041;-77
2023/12/29 02:43:12;;;;;;;5.57;1.88;;;;;;;11.70;72.64;98754.97;5050908;28;20057;-76
2023/12/29 02:45:39;;;;;;;6.63;1.90;;;;;;;11.72;72.83;98756.53;5070546;28;20049;-77
2023/12/29 02:48:06;;;;;;;9.70;1.50;;;;;;;11.73;72.74;98763.47;5071171;28;20052;-76
2023/12/29 02:50:33;;;;;;;6.82;1.67;;;;;;;11.71;72.84;98772.47;5071054;28;20080;-77
2023/12/29 02:52:59;;;;;;;8.43;1.55;;;;;;;11.65;72.70;98772.91;5070924;28;20052;-76
2023/12/29 02:55:26;;;;;;;15.15;2.17;;;;;;;11.60;73.38;98765.38;5069562;28;20075;-76
2023/12/29 02:57:53;;;;;;;11.82;1.67;;;;;;;11.52;73.61;98755.44;5070941;28;20641;-76
2023/12/29 03:00:19;;;;;;;6.53;1.75;;;;;;;11.46;73.93;98737.47;5071107;28;20060;-73
2023/12/29 03:02:46;;;;;;;6.72;1.80;;;;;;;11.43;74.03;98753.50;5070797;28;20489;-77
2023/12/29 03:05:14;;;;;;;4.85;1.73;;;;;;;11.39;74.51;98773.13;5070341;28;20489;-75
2023/12/29 03:07:41;;;;;;;5.93;1.52;;;;;;;11.34;74.75;98781.41;5071070;28;20467;-77
2023/12/29 03:10:08;;;;;;;5.35;1.80;;;;;;;11.31;75.24;98769.31;5069487;28;20076;-76
2023/12/29 03:12:35;;;;;;;8.00;1.98;;;;;;;11.28;75.36;98772.16;5070514;28;20059;-77
2023/12/29 03:15:02;;;;;;;10.25;1.77;;;;;;;11.24;75.63;98783.03;5069979;28;20059;-74
2023/12/29 03:17:29;;;;;;;6.93;1.80;;;;;;;11.19;75.71;98784.25;5071054;28;20044;-77
2023/12/29 03:19:55;;;;;;;8.45;2.08;;;;;;;11.17;75.88;98770.34;5070898;28;20084;-74
2023/12/29 03:22:22;;;;;;;7.28;2.28;;;;;;;11.15;75.99;98776.69;5070519;28;20420;-76
2023/12/29 03:24:49;;;;;;;6.55;1.92;;;;;;;11.10;76.10;98763.03;5070692;28;20052;-77
2023/12/29 03:27:16;;;;;;;9.18;2.35;;;;;;;11.07;76.38;98764.09;5070713;28;20048;-77
2023/12/29 03:29:42;;;;;;;8.48;1.83;;;;;;;11.03;76.70;98768.75;5070531;28;20067;-74
2023/12/29 03:32:09;;;;;;;8.18;1.80;;;;;;;11.00;77.03;98768.13;5070736;28;20091;-77
2023/12/29 03:34:36;;;;;;;9.25;1.90;;;;;;;10.98;76.99;98764.78;5070387;28;20063;-77
2023/12/29 03:37:03;;;;;;;6.65;1.60;;;;;;;10.96;77.25;98759.63;5070667;28;20048;-76
2023/12/29 03:39:29;;;;;;;4.82;1.77;;;;;;;10.94;77.31;98753.63;5070334;28;20052;-76
2023/12/29 03:41:56;;;;;;;5.22;1.40;;;;;;;10.91;77.52;98738.91;5070710;28;20625;-77
2023/12/29 03:44:23;;;;;;;10.07;2.13;;;;;;;10.89;77.63;98746.09;5070315;28;20123;-77
2023/12/29 03:46:51;;;;;;;5.25;1.50;;;;;;;10.91;77.71;98753.84;5070653;28;20590;-76
2023/12/29 03:49:19;;;;;;;6.75;2.00;;;;;;;10.90;77.99;98739.03;5070466;28;20106;-73
2023/12/29 03:51:46;;;;;;;6.43;1.85;;;;;;;10.92;77.94;98747.66;5070237;28;20052;-77
2023/12/29 03:54:12;;;;;;;7.55;1.90;;;;;;;10.94;77.97;98770.28;5070055;28;20079;-77
2023/12/29 03:56:39;;;;;;;6.18;1.40;;;;;;;10.95;77.87;98756.16;5070405;28;20045;-76
2023/12/29 03:59:06;;;;;;;5.07;1.58;;;;;;;10.95;77.96;98742.13;5070313;28;20102;-75
2023/12/29 04:01:33;;;;;;;9.75;1.90;;;;;;;10.97;78.19;98750.78;5070379;28;20056;-77
2023/12/29 04:04:00;;;;;;;9.73;1.98;;;;;;;10.97;77.87;98752.56;5070184;28;20059;-77
2023/12/29 04:06:27;;;;;;;5.22;1.52;;;;;;;10.99;77.80;98740.97;5069562;28;20440;-77
2023/12/29 04:08:54;;;;;;;4.70;1.58;;;;;;;11.01;77.82;98727.69;5069798;28;20044;-76
2023/12/29 04:11:20;;;;;;;5.97;1.73;;;;;;;11.02;77.90;98717.03;5070241;28;20102;-75
2023/12/29 04:13:47;;;;;;;8.63;2.15;;;;;;;11.05;78.04;98735.25;5070507;28;20052;-75
2023/12/29 04:16:15;;;;;;;9.85;2.30;;;;;;;11.03;77.82;98715.25;5070751;28;20492;-77
2023/12/29 04:18:41;;;;;;;11.68;1.90;;;;;;;11.04;77.71;98717.78;5074497;28;20122;-77
2023/12/29 04:21:13;;;;;;;8.15;1.90;;;;;;;11.04;77.47;98728.31;5074119;28;20560;-77
2023/12/29 04:23:41;;;;;;;7.80;2.10;;;;;;;11.04;77.56;98730.94;5074990;28;20041;-73
2023/12/29 04:26:08;;;;;;;10.27;2.55;;;;;;;11.03;77.47;98733.69;5073556;28;20063;-75
2023/12/29 04:28:35;;;;;;;8.45;1.83;;;;;;;11.02;77.71;98722.31;5074715;28;20052;-74
2023/12/29 04:31:02;;;;;;;8.02;1.98;;;;;;;11.01;77.80;98727.69;5074348;28;20048;-76
2023/12/29 04:33:29;;;;;;;11.02;2.50;;;;;;;10.98;77.89;98722.66;5074158;28;20389;-76
2023/12/29 04:35:55;;;;;;;18.40;2.88;;;;;;;10.98;77.95;98730.56;5073656;28;20049;-77
2023/12/29 04:38:22;;;;;;;11.52;2.35;;;;;;;10.94;77.90;98722.88;5073881;28;20048;-77
2023/12/29 04:40:48;;;;;;;9.27;2.25;;;;;;;10.94;78.13;98719.41;5073988;28;20485;-75
2023/12/29 04:43:15;;;;;;;8.63;2.08;;;;;;;10.89;78.22;98725.03;5073770;28;20094;-74
2023/12/29 04:45:42;;;;;;;12.27;2.72;;;;;;;10.90;78.12;98720.59;5072761;28;20475;-73
2023/12/29 04:48:09;;;;;;;17.85;2.70;;;;;;;10.89;78.15;98732.94;5071944;28;20140;-76
2023/12/29 04:50:35;;;;;;;14.20;2.28;;;;;;;10.87;78.17;98726.94;5073632;28;20044;-76
2023/12/29 04:53:02;;;;;;;8.95;2.25;;;;;;;10.88;78.16;98748.84;5072544;28;20055;-72
2023/12/29 04:55:29;;;;;;;13.13;2.20;;;;;;;10.88;78.23;98733.88;5073676;28;20052;-77
2023/12/29 04:57:55;;;;;;;11.60;2.33;;;;;;;10.91;78.01;98740.69;5072041;28;20439;-77
2023/12/29 05:00:22;;;;;;;12.18;2.42;;;;;;;10.95;77.88;98756.16;5073486;28;20044;-77
2023/12/29 05:02:48;;;;;;;7.15;2.42;;;;;;;10.99;77.85;98753.31;5073469;28;20052;-77
2023/12/29 05:05:15;;;;;;;10.95;2.58;;;;;;;11.04;77.82;98741.47;5073646;28;20463;-77
2023/12/29 05:07:42;;;;;;;10.60;2.40;;;;;;;11.07;77.63;98777.28;5073408;28;20133;-75
2023/12/29 05:10:08;;;;;;;5.95;2.10;;;;;;;11.08;77.49;98764.00;5072222;28;20090;-73
2023/12/29 05:12:35;;;;;;;7.05;1.95;;;;;;;11.10;77.40;98749.88;5073404;28;20059;-77
2023/12/29 05:15:02;;;;;;;6.10;1.52;;;;;;;11.07;77.49;98759.66;5073289;28;20111;-76
2023/12/29 05:17:29;;;;;;;8.23;2.38;;;;;;;11.06;77.40;98752.72;5073014;28;20046;-76
2023/12/29 05:19:55;;;;;;;15.55;3.38;;;;;;;11.04;77.48;98764.31;5072913;28;20044;-77
2023/12/29 05:22:22;;;;;;;6.38;2.72;;;;;;;11.02;77.62;98764.44;5072204;28;20044;-77
2023/12/29 05:24:48;;;;;;;6.55;1.85;;;;;;;10.97;77.86;98768.38;5073184;28;20045;-74
2023/12/29 05:27:15;;;;;;;10.30;2.22;;;;;;;10.94;77.97;98764.16;5073054;28;20048;-76
2023/12/29 05:29:42;;;;;;;11.65;2.08;;;;;;;10.92;78.15;98764.28;5071913;28;20455;-76
2023/12/29 05:32:08;;;;;;;12.05;2.17;;;;;;;10.91;78.16;98774.91;5072901;28;20443;-76
2023/12/29 05:34:35;;;;;;;8.82;2.70;;;;;;;10.89;78.38;98779.47;5073245;28;20157;-76
2023/12/29 05:37:02;;;;;;;11.50;2.53;;;;;;;10.88;78.49;98776.00;5073042;28;20131;-76
2023/12/29 05:39:29;;;;;;;10.23;2.10;;;;;;;10.87;78.42;98765.59;5072617;28;20090;-75
2023/12/29 05:41:55;;;;;;;8.27;2.25;;;;;;;10.87;78.32;98762.97;5072734;28;20053;-76
2023/12/29 05:44:22;;;;;;;11.18;2.10;;;;;;;10.85;78.25;98767.50;5072759;28;20114;-77
2023/12/29 05:46:49;;;;;;;12.13;2.45;;;;;;;10.82;78.63;98756.25;5071314;28;20048;-76
2023/12/29 05:49:16;;;;;;;15.60;2.22;;;;;;;10.80;78.69;98766.03;5072215;28;20045;-76
2023/12/29 05:51:44;;;;;;;9.50;2.42;;;;;;;10.78;79.00;98765.31;5072596;28;20531;-76
2023/12/29 05:54:11;;;;;;;9.55;2.30;;;;;;;10.78;79.18;98767.97;5072503;28;20045;-76
2023/12/29 05:56:37;;;;;;;13.38;2.28;;;;;;;10.76;79.36;98772.47;5072593;28;20052;-75
2023/12/29 05:59:04;;;;;;;10.85;2.15;;;;;;;10.75;79.26;98760.28;5072298;28;20052;-75
2023/12/29 06:01:31;;;;;;;13.18;2.67;;;;;;;10.74;79.42;98779.66;5073203;28;20045;-76
2023/12/29 06:03:57;;;;;;;8.45;2.28;;;;;;;10.73;79.45;98779.78;5071938;28;20052;-77
2023/12/29 06:06:24;;;;;;;18.50;2.38;;;;;;;10.73;79.66;98767.44;5072927;28;20052;-77
2023/12/29 06:08:51;;;;;;;16.48;2.60;;;;;;;10.73;79.59;98769.25;5070867;28;20045;-76
2023/12/29 06:11:17;;;;;;;13.52;2.35;;;;;;;10.73;79.59;98769.25;5072255;28;20466;-76
2023/12/29 06:13:45;;;;;;;8.68;3.25;;;;;;;10.76;79.37;98766.41;5072146;28;20068;-77
2023/12/29 06:16:18;;;;;;;13.57;2.83;;;;;;;10.73;78.58;98769.25;5072473;28;20080;-75
2023/12/29 06:18:45;;;;;;;12.85;2.65;;;;;;;10.77;79.14;98771.53;5071729;28;20049;-76
2023/12/29 06:21:12;;;;;;;11.75;2.90;;;;;;;10.79;78.91;98780.16;5071881;28;20048;-77
2023/12/29 06:23:38;;;;;;;12.70;2.95;;;;;;;10.82;79.18;98766.78;5070719;28;20056;-76
2023/12/29 06:26:05;;;;;;;13.10;2.50;;;;;;;10.84;78.95;98773.72;5071750;28;20493;-77
2023/12/29 06:28:31;;;;;;;11.45;2.85;;;;;;;10.88;79.04;98785.69;5071548;28;20044;-77
2023/12/29 06:30:58;;;;;;;17.60;3.55;;;;;;;10.88;78.71;98788.34;5071814;28;20076;-76
2023/12/29 06:33:25;;;;;;;15.07;2.78;;;;;;;10.90;78.75;98799.56;5071968;28;20056;-76
2023/12/29 06:35:52;;;;;;;8.20;2.33;;;;;;;10.89;78.42;98787.38;5071750;28;20690;-77
2023/12/29 06:38:18;;;;;;;22.30;3.22;;;;;;;10.91;78.15;98788.09;5071715;28;20118;-76
2023/12/29 06:40:45;;;;;;;11.20;2.35;;;;;;;10.95;78.11;98779.00;5070239;28;20483;-77
2023/12/29 06:43:11;;;;;;;11.38;2.28;;;;;;;10.99;78.03;98777.00;5071825;28;20053;-74
2023/12/29 06:45:38;;;;;;;10.25;2.38;;;;;;;11.02;77.94;98782.88;5071453;28;20404;-72
2023/12/29 06:48:05;;;;;;;9.65;2.30;;;;;;;11.07;77.92;98779.91;5071119;28;20052;-75
2023/12/29 06:50:32;;;;;;;12.50;2.60;;;;;;;11.08;77.63;98771.91;5069609;28;20189;-75
2023/12/29 06:52:58;;;;;;;13.45;3.10;;;;;;;11.12;77.49;98787.44;5069303;28;20087;-74
2023/12/29 06:55:25;;;;;;;13.75;3.00;;;;;;;11.15;77.47;98779.31;5071208;28;20522;-75
2023/12/29 06:57:52;;;;;;;12.23;2.20;;;;;;;11.14;77.20;98801.34;5070816;28;20048;-75
2023/12/29 07:00:19;;;;;;;11.93;2.28;;;;;;;11.15;77.01;98793.34;5070893;28;20055;-75
2023/12/29 07:02:46;;;;;;;14.32;2.65;;;;;;;11.17;76.78;98809.84;5068972;28;20052;-74
2023/12/29 07:05:12;;;;;;;9.77;2.08;;;;;;;11.20;76.70;98803.50;5070811;28;20048;-75
2023/12/29 07:07:39;;;;;;;15.02;2.38;;;;;;;11.20;76.33;98808.78;5071165;28;20066;-73
2023/12/29 07:10:06;;;;;;;14.18;2.38;;;;;;;11.21;76.46;98790.22;5070666;28;20059;-75
2023/12/29 07:12:33;;;;;;;14.82;2.83;;;;;;;11.24;76.45;98780.41;5069780;28;20130;-74
2023/12/29 07:14:59;;;;;;;14.93;2.10;;;;;;;11.24;76.40;98781.25;5070703;28;20087;-74
2023/12/29 07:17:26;;;;;;;12.30;2.20;;;;;;;11.24;76.05;98810.22;5070742;28;20481;-74
2023/12/29 07:19:53;;;;;;;13.82;2.42;;;;;;;11.25;76.11;98805.81;5069214;28;20049;-74
2023/12/29 07:22:19;;;;;;;12.40;2.60;;;;;;;11.26;76.01;98803.06;5068795;28;20055;-74
2023/12/29 07:24:46;;;;;;;8.48;2.40;;;;;;;11.29;76.05;98800.19;5069579;28;20041;-76
2023/12/29 07:27:13;;;;;;;16.15;3.25;;;;;;;11.30;76.05;98788.72;5067801;28;20163;-75
2023/12/29 07:29:39;;;;;;;16.95;3.35;;;;;;;11.29;75.39;98789.66;5069243;28;20056;-74
2023/12/29 07:32:06;;;;;;;17.17;2.92;;;;;;;11.30;75.59;98791.34;5069176;28;20048;-74
2023/12/29 07:34:33;;;;;;;13.27;2.70;;;;;;;11.31;75.33;98805.34;5070190;28;20057;-75
2023/12/29 07:37:00;;;;;;;18.90;2.88;;;;;;;11.29;74.35;98800.19;5070540;28;20393;-74
2023/12/29 07:39:27;;;;;;;14.80;2.53;;;;;;;11.35;75.57;98809.44;5069424;28;20432;-74
2023/12/29 07:41:53;;;;;;;11.70;2.70;;;;;;;11.34;75.32;98811.22;5069571;28;20056;-75
2023/12/29 07:44:20;;;;;;;14.32;2.92;;;;;;;11.36;75.11;98799.72;5069150;28;20052;-70
2023/12/29 07:46:47;;;;;;;14.88;2.95;;;;;;;11.36;74.97;98792.66;5070293;28;20045;-75
2023/12/29 07:49:13;;;;;;;18.33;2.63;;;;;;;11.38;74.87;98797.81;5070336;28;20072;-75
2023/12/29 07:51:41;;;;;;;12.88;2.65;;;;;;;11.37;74.52;98796.13;5068726;28;20044;-75
2023/12/29 07:54:09;;;;;;;14.40;2.92;;;;;;;11.38;74.86;98801.28;5069331;28;20057;-74
2023/12/29 07:56:37;;;;;;;13.98;2.25;;;;;;;11.41;74.98;98787.91;5069094;28;20128;-72
2023/12/29 07:59:04;;;;;;;19.58;2.75;;;;;;;11.43;74.80;98798.28;5069081;28;20135;-74
2023/12/29 08:01:32;;;;;;;16.27;3.15;;;;;;;11.43;74.71;98785.13;5070485;28;20048;-71
2023/12/29 08:03:59;;;;;;;10.75;2.15;;;;;;;11.43;74.55;98793.03;5070335;28;20079;-74
2023/12/29 08:06:26;;;;;;;13.98;2.42;;;;;;;11.44;74.36;98786.81;5070658;28;20139;-74
2023/12/29 08:08:54;;;;;;;12.43;2.25;;;;;;;11.45;74.61;98789.31;5070100;28;20045;-73
2023/12/29 08:11:21;;;;;;;11.52;2.63;;;;;;;11.44;74.24;98771.81;5070337;28;20546;-75
2023/12/29 08:13:51;;;;;;;10.13;2.38;;;;;;;11.46;74.16;98779.63;5068797;28;20048;-74
2023/12/29 08:16:18;;;;;;;14.30;2.53;;;;;;;11.45;74.35;98783.22;5069345;28;20048;-74
2023/12/29 08:18:47;;;;;;;17.17;2.33;;;;;;;11.43;73.98;98780.69;5069723;28;20118;-74
2023/12/29 08:21:20;;;;;;;9.45;1.98;;;;;;;11.40;73.10;98780.94;5069062;28;20049;-73
2023/12/29 08:23:49;;;;;;;11.20;2.78;;;;;;;11.41;74.17;98777.34;5069215;28;20076;-71
2023/12/29 08:26:16;;;;;;;9.57;2.17;;;;;;;11.42;74.26;98783.44;5070139;28;20102;-74
2023/12/29 08:28:43;;;;;;;9.00;2.72;;;;;;;11.39;74.53;98792.44;5069683;28;20072;-75
2023/12/29 08:31:09;;;;;;;9.82;2.75;;;;;;;11.38;74.63;98782.00;5068744;28;20080;-71
2023/12/29 08:33:36;;;;;;;11.90;2.10;;;;;;;11.34;74.72;98782.22;5069954;28;20554;-75
2023/12/29 08:36:04;;;;;;;12.40;2.05;;;;;;;11.33;74.71;98806.91;5070228;28;20059;-75
2023/12/29 08:38:33;;;;;;;9.32;2.00;;;;;;;11.31;74.44;98786.91;5069600;28;20132;-74
2023/12/29 08:41:00;;;;;;;12.07;2.17;;;;;;;11.28;74.52;98781.84;5050167;28;20480;-74
2023/12/29 08:43:26;;;;;;;7.93;1.75;;;;;;;11.26;74.65;98792.53;5049946;28;20072;-75
2023/12/29 08:45:54;;;;;;;8.95;1.65;;;;;;;11.22;74.50;98796.34;5049759;28;20092;-74
2023/12/29 08:48:21;;;;;;;5.55;1.27;;;;;;;11.20;74.38;98816.69;5053839;28;20040;-75
2023/12/29 08:50:48;;;;;;;7.65;1.33;;;;;;;11.13;74.62;98800.50;5069929;28;20067;-74
2023/12/29 08:53:18;;;;;;;10.45;1.85;;;;;;;11.08;74.87;98805.28;5069763;28;20052;-72
2023/12/29 08:55:44;;;;;;;6.15;1.90;;;;;;;10.99;75.11;98809.41;5068712;28;20060;-72
2023/12/29 08:58:12;;;;;;;11.48;1.60;;;;;;;10.91;75.31;98807.38;5069508;28;20045;-72
2023/12/29 09:00:39;;;;;;;7.60;1.95;;;;;;;10.84;75.90;98797.41;5069598;28;20056;-75
2023/12/29 09:03:05;;;;;;;5.65;1.63;;;;;;;10.79;76.24;98803.84;5069192;28;20110;-71
2023/12/29 09:05:32;;;;;;;6.68;1.65;;;;;;;10.74;76.62;98794.59;5073733;28;20098;-74
2023/12/29 09:07:59;;;;;;;12.07;2.05;;;;;;;10.69;76.99;98814.22;5073223;28;20056;-74
2023/12/29 09:10:26;;;;;;;10.38;2.90;;;;;;;10.66;77.33;98797.81;5072790;28;20127;-74
2023/12/29 09:12:53;;;;;;;12.65;2.10;;;;;;;10.63;77.62;98800.66;5072886;28;20169;-73
2023/12/29 09:15:20;;;;;;;9.35;2.35;;;;;;;10.58;77.89;98777.28;5072185;28;20056;-73
2023/12/29 09:17:46;;;;;;;7.53;1.80;;;;;;;10.54;78.20;98794.25;5073137;28;20378;-73
2023/12/29 09:20:14;;;;;;;9.98;2.15;;;;;;;10.50;78.51;98793.66;5072940;28;20509;-75
2023/12/29 09:22:41;;;;;;;8.95;1.88;;;;;;;10.47;78.67;98787.78;5073220;28;20044;-75
2023/12/29 09:25:08;;;;;;;8.63;2.10;;;;;;;10.44;79.08;98780.94;5072936;28;20044;-74
2023/12/29 09:27:35;;;;;;;10.40;2.25;;;;;;;10.42;79.45;98780.16;5073217;28;20399;-74
2023/12/29 09:30:02;;;;;;;6.00;2.13;;;;;;;10.40;79.78;98785.53;5071643;28;20079;-74
2023/12/29 09:32:29;;;;;;;6.55;1.75;;;;;;;10.41;80.13;98789.03;5072652;28;20123;-74
2023/12/29 09:34:55;;;;;;;10.95;2.08;;;;;;;10.42;80.40;98790.69;5072830;28;20056;-74
2023/12/29 09:37:22;;;;;;;9.95;2.08;;;;;;;10.45;80.56;98794.91;5072781;28;20106;-74
2023/12/29 09:39:49;;;;;;;6.82;2.45;;;;;;;10.44;80.76;98796.72;5072847;28;20771;-73
2023/12/29 09:42:24;;;;;;;9.52;3.20;;;;;;;10.43;80.84;98805.53;5072642;28;20116;-74
2023/12/29 09:44:52;;;;;;;9.73;2.85;;;;;;;10.45;81.30;98795.78;5072737;28;20143;-74
2023/12/29 09:47:24;;;;;;;13.02;2.50;;;;;;;10.40;81.92;98771.56;5072724;28;20052;-73
2023/12/29 09:49:54;;;;;;;12.73;2.43;;;;;;;10.40;82.10;98797.88;5072552;28;20059;-74
2023/12/29 09:52:22;;;;;;;7.85;2.13;;;;;;;10.46;81.97;98807.16;5071432;28;20298;-74
2023/12/29 09:54:51;;;;;;;5.00;1.77;;;;;;;10.48;82.04;98813.97;5072851;28;20053;-71
2023/12/29 09:57:18;;;;;;;8.55;1.70;;;;;;;10.52;82.10;98794.38;5071095;28;20052;-70
2023/12/29 09:59:51;;;;;;;6.53;2.08;;;;;;;10.55;82.07;98788.06;5071611;28;20052;-74
2023/12/29 10:02:20;;;;;;;5.53;2.00;;;;;;;10.57;82.07;98780.06;5071369;28;20051;-73
2023/12/29 10:04:47;;;;;;;9.25;2.03;;;;;;;10.60;82.13;98780.66;5072390;28;20103;-74
2023/12/29 10:07:38;;;;;;;5.43;1.67;;;;;;;10.61;82.18;98802.56;5072107;28;20044;-70
2023/12/29 10:10:06;;;;;;;7.20;1.70;;;;;;;10.67;81.91;98794.22;5071418;28;20562;-72
2023/12/29 10:12:36;;;;;;;11.40;2.42;;;;;;;10.69;82.04;98789.66;5072485;28;20099;-74
2023/12/29 10:15:15;;;;;;;7.10;1.90;;;;;;;10.71;82.01;98781.66;5072203;28;20041;-73
2023/12/29 10:18:02;;;;;;;6.18;1.45;;;;;;;10.73;82.00;98772.69;5072097;28;20060;-74
2023/12/29 10:20:57;;;;;;;7.38;1.95;;;;;;;10.72;81.85;98783.38;5072248;28;20049;-74
2023/12/29 10:23:32;;;;;;;9.55;2.10;;;;;;;10.73;81.80;98762.16;5072053;28;20052;-73
2023/12/29 10:25:58;;;;;;;10.02;2.10;;;;;;;10.73;82.05;98775.31;5071901;28;20117;-74
2023/12/29 10:28:25;;;;;;;7.38;1.92;;;;;;;10.75;82.22;98769.97;5071819;28;20059;-73
2023/12/29 10:30:51;;;;;;;5.88;1.67;;;;;;;10.75;82.31;98780.47;5070775;28;20525;-73
2023/12/29 10:33:21;;;;;;;9.55;2.45;;;;;;;10.75;82.05;98775.22;5070740;28;20060;-73
2023/12/29 10:36:02;;;;;;;6.55;1.65;;;;;;;10.76;81.57;98774.28;5071764;28;20139;-74
2023/12/29 10:38:30;;;;;;;7.60;1.40;;;;;;;10.81;82.05;98783.50;5070185;28;20413;-74
2023/12/29 10:41:19;;;;;;;4.47;1.83;;;;;;;10.80;81.08;98795.00;5070555;28;20106;-71
2023/12/29 10:43:54;;;;;;;3.78;1.25;;;;;;;10.89;82.24;98775.06;5070540;28;20432;-71
2023/12/29 10:46:21;;;;;;;5.35;1.10;;;;;;;10.92;82.03;98769.53;5071590;28;20048;-73
2023/12/29 10:48:48;;;;;;;5.30;1.60;;;;;;;10.99;81.84;98777.00;5070824;28;20098;-74
2023/12/29 10:51:15;;;;;;;3.70;1.67;;;;;;;11.03;81.84;98781.09;5070426;28;20048;-74
2023/12/29 10:53:54;;;;;;;3.72;1.42;;;;;;;11.04;80.65;98775.72;5071575;28;20056;-70
2023/12/29 10:59:03;;;;;;;8.40;1.75;;;;;;;11.12;80.53;98769.84;5145726;22;20490;-74
2023/12/29 11:01:35;;;;;;;6.43;1.60;;;;;;;11.16;80.58;98784.47;5031535;28;20111;-75
2023/12/29 11:04:06;;;;;;;6.30;1.40;;;;;;;11.18;80.08;98777.28;5031715;28;20143;-75
2023/12/29 11:06:42;;;;;;;4.18;1.25;;;;;;;11.24;80.11;98769.88;5031356;28;20141;-75
2023/12/29 11:09:10;;;;;;;5.82;1.50;;;;;;;11.28;80.64;98760.78;5031036;28;20053;-74
2023/12/29 11:11:37;;;;;;;7.30;2.17;;;;;;;11.31;80.64;98779.84;5030906;28;20140;-70
2023/12/29 11:14:04;;;;;;;7.55;1.20;;;;;;;11.35;80.70;98783.06;5049424;22;20140;-81
2023/12/29 11:16:31;;;;;;;4.40;1.27;;;;;;;11.39;80.87;98776.63;5047788;28;20081;-82
2023/12/29 11:18:58;;;;;;;5.03;1.40;;;;;;;11.41;80.34;98781.78;5049119;28;20053;-82
2023/12/29 11:21:27;;;;;;;6.45;1.60;;;;;;;11.43;80.21;98783.34;5049746;28;20504;-81
2023/12/29 11:23:54;;;;;;;4.70;1.15;;;;;;;11.45;79.39;98791.13;5050986;28;20478;-82
2023/12/29 11:26:21;;;;;;;4.53;1.23;;;;;;;11.50;80.17;98781.06;5050289;28;20128;-82
2023/12/29 11:28:50;;;;;;;5.53;1.52;;;;;;;11.54;79.98;98786.94;5050540;28;20041;-81
2023/12/29 11:31:17;;;;;;;5.25;1.50;;;;;;;11.55;79.73;98781.53;5050928;28;20055;-80
2023/12/29 11:33:52;;;;;;;3.22;1.20;;;;;;;11.55;78.42;98773.63;5049627;28;20114;-82
2023/12/29 11:36:25;;;;;;;6.03;1.27;;;;;;;11.56;78.96;98780.59;5050977;28;20056;-83
2023/12/29 11:39:06;;;;;;;4.70;1.42;;;;;;;11.58;79.11;98794.50;5049373;28;20098;-83